Time;durP1;ratioP1;P1;durP2;ratioP2;P2;SDS_P1;SDS_P2;PMS_P1;PMS_P2;Temp;Humidity;BMP_temperature;BMP_pressure;BME280_temperature;BME280_humidity;BME280_pressure;Samples;Min_cycle;Max_cycle;Signal;HPM_P1;HPM_P2
2023/07/07 00:01:09;;;;;;;8.70;8.00;;;12.90;99.90;;;;;;2614087;54;20422;-75
2023/07/07 00:06:56;;;;;;;8.33;7.77;;;12.90;99.90;;;;;;2613566;54;20379;-69
2023/07/07 00:09:59;;;;;;;7.47;6.87;;;12.90;99.90;;;;;;2613492;54;20411;-69
2023/07/07 00:12:25;;;;;;;8.87;8.03;;;12.90;99.90;;;;;;2614513;54;20230;-69
2023/07/07 00:18:15;;;;;;;8.17;7.57;;;12.80;99.90;;;;;;2614477;54;20170;-69
2023/07/07 00:24:07;;;;;;;8.20;7.70;;;12.80;99.90;;;;;;2613365;54;20374;-70
2023/07/07 00:29:54;;;;;;;8.90;8.20;;;12.60;99.90;;;;;;2613576;54;20363;-69
2023/07/07 00:39:07;;;;;;;9.27;8.47;;;12.50;99.90;;;;;;2614258;39;20474;-68
2023/07/07 00:45:10;;;;;;;7.93;7.23;;;12.50;99.90;;;;;;2613995;54;20373;-70
2023/07/07 00:57:13;;;;;;;8.80;8.00;;;12.40;99.90;;;;;;2614159;39;20798;-70
2023/07/07 01:03:07;;;;;;;7.80;7.30;;;12.30;99.90;;;;;;2613249;54;20411;-69
2023/07/07 01:09:04;;;;;;;8.10;7.20;;;12.30;99.90;;;;;;2614557;54;20447;-70
2023/07/07 01:14:52;;;;;;;7.00;6.50;;;12.30;99.90;;;;;;2613880;54;20354;-69
2023/07/07 01:33:37;;;;;;;8.30;7.60;;;12.30;99.90;;;;;;2613743;54;20379;-70
2023/07/07 01:39:26;;;;;;;9.73;8.83;;;12.20;99.90;;;;;;2614004;46;20411;-70
2023/07/07 01:58:11;;;;;;;8.00;7.40;;;11.70;99.90;;;;;;2613391;54;20391;-70
2023/07/07 02:03:59;;;;;;;7.60;6.80;;;11.90;99.90;;;;;;2613188;54;20366;-70
2023/07/07 02:09:48;;;;;;;8.00;7.37;;;11.70;99.90;;;;;;2612738;54;20652;-70
2023/07/07 02:15:35;;;;;;;9.30;8.40;;;11.60;99.90;;;;;;2613738;54;20468;-70
2023/07/07 02:21:23;;;;;;;8.37;7.63;;;11.60;99.90;;;;;;2612914;54;20988;-71
2023/07/07 02:27:11;;;;;;;6.90;6.33;;;11.60;99.90;;;;;;2614094;39;20952;-71
2023/07/07 02:32:58;;;;;;;7.00;6.33;;;11.50;99.90;;;;;;2614122;54;20796;-70
2023/07/07 02:38:46;;;;;;;7.70;6.90;;;11.40;99.90;;;;;;2614467;54;20122;-69
2023/07/07 02:44:34;;;;;;;7.23;6.63;;;11.40;99.90;;;;;;2614470;54;20476;-70
2023/07/07 02:50:22;;;;;;;7.63;6.83;;;11.30;99.90;;;;;;2614266;54;20123;-70
2023/07/07 02:56:10;;;;;;;7.37;6.77;;;11.30;99.90;;;;;;2613916;54;20154;-75
2023/07/07 03:01:57;;;;;;;8.47;7.77;;;11.20;99.90;;;;;;2613641;54;20135;-71
2023/07/07 03:07:45;;;;;;;7.50;6.67;;;11.20;99.90;;;;;;2614411;54;20114;-71
2023/07/07 03:13:34;;;;;;;9.97;7.53;;;11.20;99.90;;;;;;2613903;54;20123;-71
2023/07/07 03:19:22;;;;;;;9.37;7.03;;;11.20;99.90;;;;;;2613262;54;20395;-69
2023/07/07 03:25:10;;;;;;;7.67;6.80;;;11.20;99.90;;;;;;2613442;54;20130;-70
2023/07/07 03:41:04;;;;;;;8.30;7.60;;;11.20;99.90;;;;;;2611769;54;20476;-70
2023/07/07 03:46:51;;;;;;;7.50;6.80;;;11.30;99.90;;;;;;2613506;39;20725;-71
2023/07/07 03:52:38;;;;;;;7.73;6.37;;;11.40;99.90;;;;;;2612889;39;20566;-71
2023/07/07 03:58:27;;;;;;;6.90;6.30;;;11.40;99.90;;;;;;2611795;54;20209;-71
2023/07/07 04:04:14;;;;;;;8.00;7.30;;;11.50;99.90;;;;;;2612934;54;20992;-70
2023/07/07 04:10:02;;;;;;;7.40;6.80;;;11.60;99.90;;;;;;2610317;54;21062;-69
2023/07/07 04:22:35;;;;;;;9.00;7.30;;;11.90;99.90;;;;;;2614662;54;20402;-70
2023/07/07 04:28:23;;;;;;;7.47;6.77;;;12.10;99.90;;;;;;2612137;54;20163;-71
2023/07/07 04:34:15;;;;;;;8.77;8.07;;;12.30;99.90;;;;;;2613926;54;20129;-70
2023/07/07 04:43:25;;;;;;;7.37;6.87;;;12.90;99.90;;;;;;2614323;54;20445;-70
2023/07/07 04:49:12;;;;;;;8.13;7.33;;;13.40;99.90;;;;;;2613397;54;20399;-70
2023/07/07 04:55:00;;;;;;;9.80;8.93;;;13.80;99.90;;;;;;2610705;39;20650;-70
2023/07/07 05:00:49;;;;;;;9.70;8.90;;;14.40;99.90;;;;;;2610023;54;20125;-71
2023/07/07 05:06:38;;;;;;;12.57;11.37;;;15.20;99.90;;;;;;2614176;54;20359;-70
2023/07/07 05:12:26;;;;;;;11.13;10.33;;;15.90;99.90;;;;;;2614223;54;20391;-71
2023/07/07 05:18:15;;;;;;;11.40;10.73;;;17.40;99.90;;;;;;2609212;54;20161;-68
2023/07/07 05:24:02;;;;;;;10.93;9.90;;;17.30;99.90;;;;;;2613584;39;20759;-68
2023/07/07 05:29:50;;;;;;;11.23;10.53;;;18.10;99.90;;;;;;2613478;54;20451;-68
2023/07/07 05:35:48;;;;;;;11.40;10.73;;;18.50;99.90;;;;;;2612777;54;20155;-69
2023/07/07 05:38:57;;;;;;;11.10;10.30;;;18.10;99.90;;;;;;2613250;46;20439;-69
2023/07/07 05:41:23;;;;;;;11.90;11.10;;;18.30;99.90;;;;;;2612491;54;20446;-68
2023/07/07 05:47:10;;;;;;;12.60;11.57;;;17.90;99.90;;;;;;2612234;46;20142;-70
2023/07/07 05:52:58;;;;;;;12.93;12.03;;;18.90;99.90;;;;;;2613759;54;20175;-69
2023/07/07 05:58:46;;;;;;;13.77;12.63;;;20.10;99.90;;;;;;2613450;54;20407;-71
2023/07/07 06:04:34;;;;;;;13.40;12.30;;;20.00;99.90;;;;;;2610875;54;20166;-70
2023/07/07 06:10:22;;;;;;;15.83;14.30;;;20.50;99.90;;;;;;2609458;54;20202;-71
2023/07/07 06:16:09;;;;;;;14.30;13.00;;;21.00;99.90;;;;;;2607168;54;20154;-71
2023/07/07 06:21:57;;;;;;;14.23;13.30;;;20.80;99.90;;;;;;2612183;54;20152;-71
2023/07/07 06:27:45;;;;;;;15.97;14.63;;;21.90;99.90;;;;;;2612659;54;20134;-71
2023/07/07 06:33:32;;;;;;;15.67;14.50;;;21.80;99.90;;;;;;2614153;46;20632;-71
2023/07/07 06:43:26;;;;;;;14.73;13.40;;;22.60;99.90;;;;;;2613037;54;20388;-71
2023/07/07 06:49:14;;;;;;;15.10;13.80;;;22.80;99.90;;;;;;2613989;54;20384;-71
2023/07/07 06:55:01;;;;;;;13.70;13.10;;;23.40;99.90;;;;;;2614512;54;20147;-71
2023/07/07 07:00:49;;;;;;;13.50;12.20;;;23.70;96.50;;;;;;2612796;54;20126;-71
2023/07/07 07:06:36;;;;;;;13.33;12.63;;;24.20;90.40;;;;;;2614482;54;20150;-72
2023/07/07 07:12:24;;;;;;;13.70;12.80;;;24.70;67.10;;;;;;2608016;54;20142;-72
2023/07/07 07:18:12;;;;;;;12.90;12.30;;;25.30;55.30;;;;;;2612162;54;20163;-71
2023/07/07 07:24:00;;;;;;;13.47;12.70;;;24.70;50.70;;;;;;2614510;54;20426;-72
2023/07/07 07:29:48;;;;;;;13.37;12.77;;;25.40;41.60;;;;;;2613958;54;20146;-71
2023/07/07 07:35:36;;;;;;;14.17;13.03;;;25.70;28.60;;;;;;2612912;54;20151;-72
2023/07/07 07:41:40;;;;;;;14.27;13.17;;;26.70;26.70;;;;;;2612222;54;20146;-72
2023/07/07 07:47:26;;;;;;;13.33;12.63;;;25.30;22.00;;;;;;2611636;54;20251;-71
2023/07/07 07:53:14;;;;;;;12.70;12.10;;;25.90;21.10;;;;;;2608390;54;20134;-72
2023/07/07 07:59:02;;;;;;;12.63;12.03;;;25.90;19.70;;;;;;2610338;54;20126;-71
2023/07/07 08:04:49;;;;;;;12.63;12.13;;;27.10;17.00;;;;;;2612268;54;20509;-71
2023/07/07 08:10:37;;;;;;;12.50;11.80;;;26.50;11.90;;;;;;2611682;54;20133;-72
2023/07/07 08:16:24;;;;;;;12.00;11.50;;;27.50;3.70;;;;;;2611487;54;20167;-71
2023/07/07 08:22:15;;;;;;;12.27;11.67;;;27.50;7.00;;;;;;2614771;39;21072;-72
2023/07/07 08:28:03;;;;;;;13.40;12.80;;;27.70;5.40;;;;;;2611416;54;20418;-71
2023/07/07 08:33:52;;;;;;;12.93;11.87;;;27.60;2.10;;;;;;2612714;54;20431;-71
2023/07/07 08:43:29;;;;;;;12.30;11.80;;;28.30;3.40;;;;;;2611940;54;20414;-71
2023/07/07 08:49:23;;;;;;;12.80;12.20;;;28.40;1.00;;;;;;2610606;54;20440;-72
2023/07/07 09:14:49;;;;;;;13.13;12.53;;;27.50;1.00;;;;;;2611165;54;20970;-72
2023/07/07 09:20:38;;;;;;;13.23;12.53;;;28.20;1.00;;;;;;2613731;54;20438;-73
2023/07/07 09:32:40;;;;;;;13.87;13.13;;;29.10;1.00;;;;;;2613501;54;20547;-71
2023/07/07 09:38:57;;;;;;;12.90;12.20;;;29.00;1.00;;;;;;2613281;54;20187;-72
2023/07/07 09:51:46;;;;;;;13.07;12.37;;;28.70;1.00;;;;;;2613254;54;20406;-72
2023/07/07 10:03:48;;;;;;;12.07;11.57;;;29.50;1.00;;;;;;2612927;54;20382;-72
2023/07/07 10:09:36;;;;;;;13.10;12.40;;;29.00;1.00;;;;;;2614396;54;21071;-72
2023/07/07 10:15:39;;;;;;;13.00;12.20;;;29.10;1.00;;;;;;2613422;54;20200;-72
2023/07/07 10:21:27;;;;;;;12.80;12.20;;;29.10;1.00;;;;;;2615704;39;20827;-72
2023/07/07 10:30:26;;;;;;;13.57;12.77;;;29.40;1.00;;;;;;2613674;54;20414;-72
2023/07/07 10:32:51;;;;;;;13.20;12.60;;;29.00;1.00;;;;;;2611231;54;20450;-73
2023/07/07 10:38:40;;;;;;;13.87;12.50;;;29.00;1.00;;;;;;2613185;54;20148;-72
2023/07/07 10:44:28;;;;;;;13.10;12.47;;;29.60;1.00;;;;;;2612743;54;20363;-72
2023/07/07 10:50:26;;;;;;;13.50;12.70;;;30.20;1.00;;;;;;2614065;54;20130;-73
2023/07/07 10:56:17;;;;;;;12.40;11.90;;;29.30;1.00;;;;;;2613513;54;20395;-72
2023/07/07 11:54:38;;;;;;;12.27;11.73;;;30.90;1.00;;;;;;2614489;54;20420;-71
2023/07/07 12:00:42;;;;;;;12.53;12.03;;;30.50;1.00;;;;;;2613992;54;20373;-72
2023/07/07 12:32:28;;;;;;;13.27;12.67;;;30.50;1.00;;;;;;2610311;47;21124;-72
2023/07/07 12:38:21;;;;;;;13.93;13.33;;;31.20;1.00;;;;;;2608107;54;20134;-72
2023/07/07 12:44:10;;;;;;;14.10;13.40;;;31.30;1.00;;;;;;2606376;54;21592;-72
2023/07/07 12:47:28;;;;;;;13.60;13.00;;;30.40;1.00;;;;;;2608862;54;20456;-72
2023/07/07 12:53:29;;;;;;;14.07;13.33;;;31.30;1.00;;;;;;2609724;39;20833;-71
2023/07/07 13:09:26;;;;;;;14.00;13.30;;;32.10;1.00;;;;;;2611527;46;20415;-72
2023/07/07 13:15:25;;;;;;;13.93;13.10;;;31.70;1.00;;;;;;2612927;39;20807;-72
2023/07/07 13:21:13;;;;;;;14.93;13.77;;;31.90;1.00;;;;;;2612797;54;20398;-72
2023/07/07 13:27:01;;;;;;;13.97;13.27;;;31.10;1.00;;;;;;2612742;54;20411;-72
2023/07/07 13:32:49;;;;;;;14.03;13.33;;;31.80;1.00;;;;;;2609866;54;20137;-72
2023/07/07 13:38:43;;;;;;;14.40;13.80;;;31.90;1.00;;;;;;2613770;31;20592;-73
2023/07/07 13:47:54;;;;;;;14.50;13.80;;;31.40;1.00;;;;;;2609238;54;20432;-72
2023/07/07 13:53:42;;;;;;;13.73;13.03;;;31.80;1.00;;;;;;2613340;54;20147;-72
2023/07/07 13:59:30;;;;;;;13.10;12.50;;;30.10;1.00;;;;;;2609997;54;20411;-72
2023/07/07 14:05:20;;;;;;;13.17;12.53;;;30.80;1.00;;;;;;2612828;39;20759;-72
2023/07/07 14:17:43;;;;;;;13.53;12.83;;;31.60;1.00;;;;;;2611596;54;20392;-72
2023/07/07 14:23:31;;;;;;;13.07;12.37;;;30.80;1.00;;;;;;2613981;54;20406;-72
2023/07/07 14:35:45;;;;;;;12.60;11.90;;;32.00;1.00;;;;;;2609776;39;20458;-72
2023/07/07 14:41:38;;;;;;;13.03;12.43;;;32.00;1.00;;;;;;2610458;54;20652;-71
2023/07/07 14:47:33;;;;;;;12.83;12.23;;;32.30;1.00;;;;;;2610839;54;20415;-71
2023/07/07 14:53:23;;;;;;;12.47;11.87;;;31.80;1.00;;;;;;2610371;39;20801;-72
2023/07/07 14:59:23;;;;;;;13.67;12.83;;;31.30;1.00;;;;;;2609928;54;20392;-72
2023/07/07 15:05:30;;;;;;;14.53;13.83;;;31.50;1.00;;;;;;2610900;54;20376;-73
2023/07/07 15:11:24;;;;;;;14.27;13.57;;;32.00;1.00;;;;;;2610841;54;20515;-72
2023/07/07 15:17:12;;;;;;;13.53;12.93;;;31.90;1.00;;;;;;2610630;54;20502;-73
2023/07/07 15:23:00;;;;;;;14.07;13.27;;;31.70;1.00;;;;;;2610772;54;20263;-72
2023/07/07 15:28:47;;;;;;;13.27;12.63;;;32.10;1.00;;;;;;2605759;54;20122;-73
2023/07/07 15:31:53;;;;;;;14.67;14.07;;;32.10;1.00;;;;;;2609829;39;20819;-73
2023/07/07 15:34:20;;;;;;;13.63;13.03;;;31.60;1.00;;;;;;2611511;54;20162;-73
2023/07/07 15:37:13;;;;;;;15.33;14.63;;;31.70;1.00;;;;;;2610068;54;21088;-72
2023/07/07 15:39:38;;;;;;;13.10;12.50;;;32.00;1.00;;;;;;2613099;54;20423;-72
2023/07/07 15:48:51;;;;;;;13.27;12.43;;;31.70;1.00;;;;;;2608279;54;20464;-72
2023/07/07 15:54:39;;;;;;;13.33;12.83;;;31.60;1.00;;;;;;2612356;54;20403;-72
2023/07/07 16:00:31;;;;;;;13.73;13.13;;;31.00;1.00;;;;;;2612899;54;20136;-72
2023/07/07 16:06:21;;;;;;;13.13;12.43;;;31.50;1.00;;;;;;2612274;39;20464;-72
2023/07/07 16:12:17;;;;;;;14.07;13.37;;;32.90;1.00;;;;;;2611644;54;20914;-72
2023/07/07 16:18:07;;;;;;;13.73;13.10;;;32.90;1.00;;;;;;2613750;54;20367;-72
2023/07/07 16:23:55;;;;;;;13.63;13.03;;;32.30;1.00;;;;;;2611154;54;20988;-72
2023/07/07 16:29:44;;;;;;;14.40;13.70;;;32.30;1.00;;;;;;2612917;54;20170;-72
2023/07/07 16:35:32;;;;;;;14.50;13.40;;;31.90;1.00;;;;;;2614251;54;20407;-73
2023/07/07 16:41:21;;;;;;;13.37;12.87;;;31.70;1.00;;;;;;2613726;46;20146;-72
2023/07/07 16:44:12;;;;;;;19.13;14.70;;;31.30;1.00;;;;;;2612596;54;20483;-72
2023/07/07 16:46:38;;;;;;;13.97;13.37;;;31.80;1.00;;;;;;2614054;54;20384;-72
2023/07/07 16:52:25;;;;;;;14.03;13.43;;;31.50;1.00;;;;;;2613982;54;20162;-72
2023/07/07 16:58:14;;;;;;;14.10;13.60;;;31.20;1.00;;;;;;2613447;39;20509;-72
2023/07/07 17:04:02;;;;;;;15.30;14.40;;;30.60;1.00;;;;;;2613141;54;20414;-72
2023/07/07 17:09:49;;;;;;;15.00;14.10;;;30.50;1.00;;;;;;2613954;54;20157;-72
2023/07/07 17:15:37;;;;;;;17.00;16.10;;;30.30;1.00;;;;;;2613694;54;20230;-72
2023/07/07 17:21:28;;;;;;;14.30;13.60;;;30.50;1.00;;;;;;2613850;54;20960;-72
2023/07/07 17:27:15;;;;;;;14.90;14.20;;;30.50;1.00;;;;;;2612863;54;20379;-72
2023/07/07 17:33:03;;;;;;;15.87;15.17;;;30.10;1.00;;;;;;2613405;54;20125;-71
2023/07/07 17:38:53;;;;;;;16.83;16.03;;;29.40;1.00;;;;;;2613794;39;20226;-72
2023/07/07 17:48:43;;;;;;;16.17;15.37;;;28.80;1.00;;;;;;2612269;54;20395;-72
2023/07/07 17:54:31;;;;;;;16.23;15.53;;;28.40;1.00;;;;;;2613964;46;20387;-72
2023/07/07 17:57:34;;;;;;;17.07;15.87;;;28.30;1.00;;;;;;2611845;54;21029;-72
2023/07/07 18:00:00;;;;;;;15.87;15.07;;;28.20;1.00;;;;;;2614633;54;20139;-72
2023/07/07 18:05:47;;;;;;;15.87;14.93;;;27.90;1.00;;;;;;2614206;54;20171;-72
2023/07/07 18:11:34;;;;;;;15.87;15.27;;;27.80;1.00;;;;;;2614598;46;20261;-73
2023/07/07 18:17:22;;;;;;;17.13;16.23;;;27.50;1.00;;;;;;2614491;54;20123;-72
2023/07/07 18:23:10;;;;;;;17.40;16.03;;;27.40;1.00;;;;;;2615003;54;20159;-71
2023/07/07 18:35:17;;;;;;;17.40;16.40;;;27.00;1.00;;;;;;2613409;54;20490;-72
2023/07/07 18:44:14;;;;;;;17.00;16.30;;;26.70;1.00;;;;;;2615313;39;20769;-73
2023/07/07 18:46:41;;;;;;;17.47;16.57;;;26.60;1.00;;;;;;2614224;54;20396;-73
2023/07/07 18:52:29;;;;;;;17.20;16.10;;;26.50;1.00;;;;;;2614487;46;20407;-72
2023/07/07 18:58:17;;;;;;;17.00;16.20;;;26.40;1.00;;;;;;2614104;54;20160;-72
2023/07/07 19:04:05;;;;;;;17.20;16.40;;;26.10;1.00;;;;;;2613299;54;20122;-73
2023/07/07 19:09:54;;;;;;;17.00;16.30;;;26.00;1.00;;;;;;2613536;54;20503;-72
2023/07/07 19:15:44;;;;;;;16.67;15.77;;;25.80;1.00;;;;;;2613982;54;21132;-73
2023/07/07 19:21:32;;;;;;;17.73;16.90;;;25.70;1.00;;;;;;2613952;54;20407;-72
2023/07/07 19:27:20;;;;;;;17.60;16.80;;;25.30;1.00;;;;;;2612621;54;20122;-72
2023/07/07 19:39:25;;;;;;;17.77;16.70;;;24.80;3.30;;;;;;2614196;54;20503;-72
2023/07/07 19:48:45;;;;;;;18.50;17.43;;;24.50;5.30;;;;;;2612423;54;20443;-73
2023/07/07 19:54:32;;;;;;;17.97;16.97;;;24.20;8.20;;;;;;2613217;54;20407;-72
2023/07/07 20:00:22;;;;;;;18.97;17.63;;;24.10;9.20;;;;;;2611045;54;20134;-72
2023/07/07 20:06:15;;;;;;;18.30;17.50;;;23.90;9.70;;;;;;2613278;54;20918;-72
2023/07/07 20:12:07;;;;;;;18.10;17.00;;;23.70;11.60;;;;;;2614339;54;20363;-72
2023/07/07 20:17:54;;;;;;;18.20;17.40;;;23.60;13.20;;;;;;2612596;54;20371;-72
2023/07/07 20:23:42;;;;;;;18.07;16.97;;;23.40;14.60;;;;;;2614668;54;20131;-72
2023/07/07 20:29:30;;;;;;;18.03;17.20;;;23.30;14.40;;;;;;2611051;54;20110;-73
2023/07/07 20:35:19;;;;;;;19.00;18.00;;;23.30;14.60;;;;;;2612084;54;20145;-72
2023/07/07 20:41:13;;;;;;;18.00;17.20;;;22.90;16.40;;;;;;2613410;54;20355;-73
2023/07/07 20:44:14;;;;;;;17.80;16.90;;;22.90;17.20;;;;;;2613332;54;20406;-73
2023/07/07 20:46:42;;;;;;;18.53;17.57;;;22.70;17.80;;;;;;2614104;54;20488;-73
2023/07/07 20:52:29;;;;;;;19.17;18.17;;;22.60;20.10;;;;;;2613965;54;20424;-72
2023/07/07 20:58:17;;;;;;;17.70;16.93;;;22.60;20.20;;;;;;2613426;39;20544;-73
2023/07/07 21:04:06;;;;;;;17.20;16.33;;;22.30;22.30;;;;;;2613480;54;20236;-73
2023/07/07 21:09:53;;;;;;;18.00;17.10;;;22.20;26.80;;;;;;2612901;54;20801;-73
2023/07/07 21:15:41;;;;;;;18.33;17.20;;;22.10;27.10;;;;;;2612338;54;20130;-72
2023/07/07 21:21:29;;;;;;;18.60;17.70;;;21.90;27.90;;;;;;2612909;54;20134;-73
2023/07/07 21:27:18;;;;;;;18.47;17.37;;;21.90;29.60;;;;;;2613151;54;20234;-73
2023/07/07 21:33:08;;;;;;;19.30;18.10;;;21.80;30.80;;;;;;2614778;54;20391;-72
2023/07/07 21:38:58;;;;;;;19.30;18.30;;;22.00;28.30;;;;;;2613276;54;20366;-74
2023/07/07 21:48:45;;;;;;;19.07;18.03;;;21.80;29.30;;;;;;2614570;54;20395;-73
2023/07/07 21:54:33;;;;;;;19.67;18.57;;;21.60;31.70;;;;;;2611967;54;20395;-73
2023/07/07 22:00:24;;;;;;;18.83;17.83;;;21.40;35.30;;;;;;2614116;54;20274;-73
2023/07/07 22:06:15;;;;;;;18.57;17.67;;;21.30;36.90;;;;;;2613863;54;20414;-73
2023/07/07 22:12:05;;;;;;;18.53;17.67;;;21.40;37.70;;;;;;2615532;39;20827;-72
2023/07/07 22:17:52;;;;;;;19.03;17.77;;;21.20;38.80;;;;;;2615280;54;20351;-72
2023/07/07 22:23:41;;;;;;;19.93;18.63;;;21.30;40.20;;;;;;2615771;39;20928;-73
2023/07/07 22:29:29;;;;;;;19.30;18.17;;;21.20;41.10;;;;;;2616176;54;20391;-73
2023/07/07 22:35:17;;;;;;;18.80;17.50;;;21.20;44.00;;;;;;2615668;54;20150;-73
2023/07/07 22:41:05;;;;;;;18.33;17.43;;;21.20;44.50;;;;;;2616086;54;20489;-73
2023/07/07 22:44:11;;;;;;;17.20;16.43;;;21.00;46.70;;;;;;2614224;54;20428;-72
2023/07/07 22:46:40;;;;;;;18.70;17.70;;;21.00;46.90;;;;;;2613280;54;20165;-72
2023/07/07 22:52:28;;;;;;;18.10;17.30;;;21.00;50.10;;;;;;2614293;54;20387;-73
2023/07/07 22:58:18;;;;;;;18.73;17.30;;;20.80;52.90;;;;;;2611825;54;20126;-75
2023/07/07 23:04:07;;;;;;;18.10;17.20;;;20.80;54.60;;;;;;2614957;54;20387;-74
2023/07/07 23:09:55;;;;;;;18.63;17.70;;;20.70;57.80;;;;;;2612124;54;20391;-72
2023/07/07 23:15:43;;;;;;;19.00;18.00;;;20.50;66.30;;;;;;2614468;54;20359;-72
2023/07/07 23:21:30;;;;;;;17.77;16.97;;;20.50;71.70;;;;;;2612789;54;21000;-73
2023/07/07 23:27:18;;;;;;;18.63;17.53;;;20.30;82.60;;;;;;2611854;39;20223;-72
2023/07/07 23:39:40;;;;;;;18.30;17.40;;;20.60;73.20;;;;;;2611769;39;20779;-73
2023/07/07 23:48:50;;;;;;;18.00;17.20;;;20.70;69.80;;;;;;2612861;54;20363;-73
2023/07/07 23:54:38;;;;;;;18.00;17.10;;;20.50;76.50;;;;;;2613861;54;20236;-73
2023/07/07 23:57:41;;;;;;;17.10;16.20;;;20.50;78.60;;;;;;2614440;39;20786;-73
